Time;durP1;ratioP1;P1;durP2;ratioP2;P2;SDS_P1;SDS_P2;PMS_P1;PMS_P2;Temp;Humidity;BMP_temperature;BMP_pressure;BME280_temperature;BME280_humidity;BME280_pressure;Samples;Min_cycle;Max_cycle;Signal;HPM_P1;HPM_P2
2021/04/12 00:02:28;;;;;;;7.82;2.97;;;4.20;99.90;;;;;;6100046;23;20025;-87
2021/04/12 00:05:23;;;;;;;6.32;3.47;;;4.20;99.90;;;;;;6101415;23;20069;-86
2021/04/12 00:08:17;;;;;;;7.05;3.00;;;4.20;99.90;;;;;;6100257;23;20025;-86
2021/04/12 00:11:10;;;;;;;5.32;2.72;;;4.20;99.90;;;;;;6099836;23;20064;-87
2021/04/12 00:13:59;;;;;;;6.45;2.90;;;4.20;99.90;;;;;;6100163;23;20018;-87
2021/04/12 00:16:41;;;;;;;;;;;4.10;99.90;;;;;;6101157;23;20040;-87
2021/04/12 00:19:37;;;;;;;6.03;2.72;;;4.10;99.90;;;;;;6100409;23;19944;-87
2021/04/12 00:22:27;;;;;;;4.82;2.60;;;4.10;99.90;;;;;;6093224;23;20022;-88
2021/04/12 00:24:59;;;;;;;4.28;2.45;;;4.10;99.90;;;;;;6101010;23;20053;-86
2021/04/12 00:27:38;;;;;;;3.83;2.35;;;4.10;99.90;;;;;;6100542;23;20014;-86
2021/04/12 00:30:16;;;;;;;3.60;2.00;;;4.10;99.90;;;;;;6100522;23;20044;-87
2021/04/12 00:33:09;;;;;;;6.03;2.20;;;4.10;99.90;;;;;;6101669;23;20044;-86
2021/04/12 00:35:40;;;;;;;3.88;2.20;;;4.10;99.90;;;;;;6100979;23;20284;-87
2021/04/12 00:38:22;;;;;;;4.30;2.47;;;4.10;99.90;;;;;;6100577;23;20022;-88
2021/04/12 00:41:27;;;;;;;5.18;2.40;;;4.10;99.90;;;;;;6101263;23;20022;-87
2021/04/12 00:44:27;;;;;;;5.60;2.33;;;4.10;99.90;;;;;;6076779;23;20029;-87
2021/04/12 00:47:14;;;;;;;6.50;2.40;;;4.10;99.90;;;;;;6085444;23;20354;-87
2021/04/12 00:49:55;;;;;;;6.10;2.15;;;4.10;99.90;;;;;;6100249;23;20022;-87
2021/04/12 00:52:53;;;;;;;3.80;2.00;;;4.10;99.90;;;;;;6100882;23;20110;-87
2021/04/12 00:55:25;;;;;;;3.63;1.90;;;4.10;99.90;;;;;;6102778;23;20106;-87
2021/04/12 00:57:58;;;;;;;5.15;1.90;;;4.10;99.90;;;;;;6119923;23;20025;-86
2021/04/12 01:00:26;;;;;;;5.65;1.70;;;4.10;99.90;;;;;;6106912;23;20033;-87
2021/04/12 01:03:08;;;;;;;3.15;1.80;;;4.10;99.90;;;;;;6101082;23;20022;-87
2021/04/12 01:06:06;;;;;;;5.57;2.10;;;4.10;99.90;;;;;;6100538;23;20438;-87
2021/04/12 01:09:10;;;;;;;4.80;2.35;;;4.10;99.90;;;;;;6102905;23;20442;-86
2021/04/12 01:11:54;;;;;;;5.60;1.58;;;4.10;99.90;;;;;;6154833;23;20041;-86
2021/04/12 01:14:54;;;;;;;3.75;2.05;;;4.10;99.90;;;;;;6129321;23;20096;-86
2021/04/12 01:17:46;;;;;;;4.03;1.80;;;4.00;99.90;;;;;;6128981;23;20032;-87
2021/04/12 01:20:34;;;;;;;3.90;2.00;;;4.00;99.90;;;;;;6129076;23;20017;-86
2021/04/12 01:23:25;;;;;;;3.72;1.40;;;4.00;99.90;;;;;;6129734;23;20017;-86
2021/04/12 01:26:10;;;;;;;3.10;1.60;;;4.00;99.90;;;;;;6129437;23;20127;-86
2021/04/12 01:28:52;;;;;;;5.40;1.73;;;4.00;99.90;;;;;;6130498;23;20017;-86
2021/04/12 01:31:55;;;;;;;2.35;1.58;;;3.90;99.90;;;;;;6129153;23;20021;-86
2021/04/12 01:34:38;;;;;;;3.75;1.42;;;3.90;99.90;;;;;;6129560;23;20026;-87
2021/04/12 01:37:14;;;;;;;4.07;1.30;;;3.90;99.90;;;;;;6128747;23;20018;-87
2021/04/12 01:40:00;;;;;;;2.30;1.40;;;3.90;99.90;;;;;;6129323;23;20022;-87
2021/04/12 01:42:38;;;;;;;3.80;1.17;;;3.90;99.90;;;;;;6128907;23;20049;-87
2021/04/12 01:45:30;;;;;;;4.23;1.53;;;3.90;99.90;;;;;;6128523;23;20100;-87
2021/04/12 01:48:15;;;;;;;6.18;1.45;;;3.90;99.90;;;;;;6129207;23;20068;-86
2021/04/12 01:51:09;;;;;;;2.90;1.00;;;3.90;99.90;;;;;;6129213;23;20045;-87
2021/04/12 01:53:58;;;;;;;4.97;1.17;;;3.90;99.90;;;;;;6116970;23;20431;-86
2021/04/12 01:56:28;;;;;;;;;;;3.90;99.90;;;;;;6155026;23;20025;-87
2021/04/12 01:59:39;;;;;;;4.15;1.30;;;3.90;99.90;;;;;;6129494;23;19917;-87
2021/04/12 02:02:32;;;;;;;1.40;1.02;;;3.90;99.90;;;;;;6128578;23;20017;-87
2021/04/12 02:05:18;;;;;;;7.68;6.03;;;3.90;99.90;;;;;;6130222;23;20053;-86
2021/04/12 02:08:08;;;;;;;4.75;1.90;;;3.90;99.90;;;;;;6129286;23;20484;-86
2021/04/12 02:10:56;;;;;;;3.45;1.60;;;3.90;99.90;;;;;;6102796;23;20030;-86
2021/04/12 02:13:41;;;;;;;4.30;1.10;;;3.90;99.90;;;;;;6119899;23;20086;-86
2021/04/12 02:16:41;;;;;;;5.32;1.60;;;3.90;99.90;;;;;;6104036;23;20022;-87
2021/04/12 02:19:48;;;;;;;2.88;0.98;;;3.90;99.90;;;;;;6126115;23;20033;-87
2021/04/12 02:22:54;;;;;;;4.10;1.20;;;3.90;99.90;;;;;;6099629;23;20081;-87
2021/04/12 02:25:43;;;;;;;3.63;0.80;;;3.90;99.80;;;;;;6099370;23;20093;-87
2021/04/12 02:28:23;;;;;;;2.70;1.10;;;3.90;99.60;;;;;;6099036;23;20022;-87
2021/04/12 02:30:58;;;;;;;2.28;0.80;;;3.90;99.30;;;;;;6100164;23;20506;-86
2021/04/12 02:33:41;;;;;;;2.75;0.70;;;3.90;99.00;;;;;;6099216;23;20021;-86
2021/04/12 02:36:24;;;;;;;4.45;0.80;;;3.90;99.00;;;;;;6099423;23;20034;-87
2021/04/12 02:39:15;;;;;;;1.90;0.60;;;3.90;98.70;;;;;;6100214;23;20030;-86
2021/04/12 02:41:44;;;;;;;2.17;0.55;;;4.00;98.50;;;;;;6099013;23;20053;-86
2021/04/12 02:44:49;;;;;;;1.23;0.60;;;4.00;98.40;;;;;;6124863;23;20018;-87
2021/04/12 02:47:34;;;;;;;3.60;0.80;;;4.00;98.40;;;;;;6098628;23;20102;-87
2021/04/12 02:50:17;;;;;;;4.15;0.70;;;4.00;98.20;;;;;;6099725;23;20412;-86
2021/04/12 02:53:05;;;;;;;1.75;0.70;;;4.10;98.10;;;;;;6099614;23;20026;-86
2021/04/12 02:56:09;;;;;;;4.00;0.65;;;4.10;98.00;;;;;;6099802;23;20018;-87
2021/04/12 02:58:36;;;;;;;2.25;0.70;;;4.10;97.90;;;;;;6098805;23;20022;-87
2021/04/12 03:01:11;;;;;;;2.97;0.50;;;4.10;97.90;;;;;;6099836;23;20300;-87
2021/04/12 03:03:53;;;;;;;4.57;0.85;;;4.10;97.80;;;;;;6086531;23;20022;-87
2021/04/12 03:06:38;;;;;;;3.47;0.63;;;4.10;97.90;;;;;;6125030;23;20018;-86
2021/04/12 03:09:25;;;;;;;3.25;0.55;;;4.10;97.80;;;;;;6099825;23;20026;-87
2021/04/12 03:12:09;;;;;;;3.63;0.70;;;4.00;97.80;;;;;;6099866;23;20022;-86
2021/04/12 03:15:03;;;;;;;1.60;0.52;;;4.00;97.70;;;;;;6099046;23;20026;-86
2021/04/12 03:17:52;;;;;;;2.67;0.88;;;4.00;97.80;;;;;;6099262;23;20018;-87
2021/04/12 03:20:39;;;;;;;2.65;0.63;;;4.00;97.70;;;;;;6099556;23;20028;-87
2021/04/12 03:23:11;;;;;;;2.33;0.68;;;4.00;97.70;;;;;;6008684;23;20335;-87
2021/04/12 03:26:10;;;;;;;2.92;0.63;;;4.00;97.70;;;;;;6011247;23;20020;-86
2021/04/12 03:28:48;;;;;;;2.63;0.90;;;4.00;97.70;;;;;;5998861;23;20023;-86
2021/04/12 03:31:42;;;;;;;3.95;0.50;;;4.00;97.60;;;;;;6022271;23;20050;-87
2021/04/12 03:34:38;;;;;;;3.88;0.60;;;4.00;97.50;;;;;;6008282;23;20024;-87
2021/04/12 03:37:33;;;;;;;3.08;0.70;;;4.00;97.60;;;;;;6008946;23;20032;-88
2021/04/12 03:40:19;;;;;;;1.65;0.47;;;3.90;97.60;;;;;;6009587;23;20107;-86
2021/04/12 03:43:03;;;;;;;3.90;0.70;;;3.90;97.60;;;;;;5985678;23;20379;-87
2021/04/12 03:46:02;;;;;;;6.05;1.05;;;3.90;97.50;;;;;;5972970;23;20444;-86
2021/04/12 03:48:35;;;;;;;3.13;0.50;;;3.90;97.70;;;;;;6008213;23;20020;-86
2021/04/12 03:51:10;;;;;;;3.35;0.60;;;3.80;97.70;;;;;;6009110;23;20023;-86
2021/04/12 03:54:16;;;;;;;6.25;0.77;;;3.80;97.80;;;;;;5985580;23;20030;-87
2021/04/12 03:56:57;;;;;;;5.28;0.63;;;3.70;97.80;;;;;;5986490;23;20034;-86
2021/04/12 03:59:33;;;;;;;2.53;0.55;;;3.70;98.00;;;;;;6026826;23;20032;-87
2021/04/12 04:02:33;;;;;;;3.33;0.50;;;3.70;98.20;;;;;;6101892;23;20445;-87
2021/04/12 04:05:20;;;;;;;2.58;0.80;;;3.60;98.30;;;;;;6100637;23;20073;-86
2021/04/12 04:08:05;;;;;;;4.03;0.55;;;3.50;98.40;;;;;;6100592;23;20033;-86
2021/04/12 04:10:53;;;;;;;2.20;0.63;;;3.50;98.60;;;;;;6103282;23;20022;-86
2021/04/12 04:13:37;;;;;;;1.20;0.55;;;3.40;98.60;;;;;;6100485;23;20025;-86
2021/04/12 04:16:41;;;;;;;4.20;1.00;;;3.40;98.70;;;;;;6100761;23;20509;-87
2021/04/12 04:19:29;;;;;;;2.97;0.50;;;3.40;98.70;;;;;;6100441;23;20039;-87
2021/04/12 04:22:23;;;;;;;3.42;0.65;;;3.40;98.70;;;;;;6101015;23;20025;-86
2021/04/12 04:25:27;;;;;;;5.60;0.50;;;3.40;98.80;;;;;;6100538;23;20029;-86
2021/04/12 04:28:13;;;;;;;3.28;0.50;;;3.50;98.80;;;;;;6100288;23;20044;-87
2021/04/12 04:31:14;;;;;;;6.90;0.63;;;3.50;98.80;;;;;;6100494;23;20525;-87
2021/04/12 04:34:04;;;;;;;2.13;0.50;;;3.50;98.90;;;;;;6100097;23;20097;-87
2021/04/12 04:36:41;;;;;;;4.90;0.55;;;3.60;98.80;;;;;;6088817;23;20093;-87
2021/04/12 04:39:29;;;;;;;2.80;0.50;;;3.60;98.70;;;;;;6100963;23;20022;-87
2021/04/12 04:42:33;;;;;;;3.90;0.60;;;3.60;98.70;;;;;;6103064;23;20379;-87
2021/04/12 04:45:38;;;;;;;1.73;0.43;;;3.60;98.80;;;;;;6113600;23;20864;-87
2021/04/12 04:48:35;;;;;;;4.57;0.50;;;3.60;98.70;;;;;;6107604;23;20509;-88
2021/04/12 04:51:26;;;;;;;5.43;0.65;;;3.60;98.70;;;;;;6100723;23;20018;-87
2021/04/12 04:54:32;;;;;;;1.85;0.52;;;3.60;98.70;;;;;;6099923;23;20433;-87
2021/04/12 04:57:23;;;;;;;3.10;0.57;;;3.50;98.80;;;;;;6099747;23;20218;-89
2021/04/12 05:00:25;;;;;;;3.25;0.60;;;3.50;98.80;;;;;;6099943;23;20022;-87
2021/04/12 05:03:00;;;;;;;4.00;0.70;;;3.50;98.80;;;;;;6100148;23;20049;-87
2021/04/12 05:05:37;;;;;;;4.43;0.63;;;3.50;98.80;;;;;;6099642;23;20042;-86
2021/04/12 05:08:22;;;;;;;3.30;0.93;;;3.50;98.80;;;;;;6100025;23;20076;-88
2021/04/12 05:11:10;;;;;;;4.65;0.75;;;3.50;98.80;;;;;;6154833;23;20350;-87
2021/04/12 05:14:07;;;;;;;2.08;0.40;;;3.50;98.80;;;;;;6129655;23;20441;-87
2021/04/12 05:16:56;;;;;;;1.95;0.75;;;3.50;98.70;;;;;;6128983;23;20790;-87
2021/04/12 05:19:41;;;;;;;2.08;0.60;;;3.50;98.70;;;;;;6129225;23;20021;-87
2021/04/12 05:22:31;;;;;;;3.45;0.50;;;3.50;98.70;;;;;;6129535;23;20449;-88
2021/04/12 05:25:28;;;;;;;2.95;0.65;;;3.50;98.80;;;;;;6129287;23;20442;-87
2021/04/12 05:27:58;;;;;;;2.70;0.50;;;3.50;98.70;;;;;;6128630;23;20021;-87
2021/04/12 05:30:36;;;;;;;2.65;0.70;;;3.50;98.70;;;;;;6128308;23;20029;-87
2021/04/12 05:33:25;;;;;;;3.15;0.75;;;3.40;98.70;;;;;;6129685;23;20052;-86
2021/04/12 05:35:56;;;;;;;5.45;0.55;;;3.40;98.70;;;;;;6128526;23;20024;-87
2021/04/12 05:38:38;;;;;;;2.80;0.85;;;3.40;98.80;;;;;;6130175;23;20076;-87
2021/04/12 05:41:52;;;;;;;2.75;1.20;;;3.50;98.80;;;;;;6127665;23;20453;-88
2021/04/12 05:44:56;;;;;;;4.38;0.60;;;3.40;98.80;;;;;;6097493;23;20021;-88
2021/04/12 05:47:42;;;;;;;5.32;1.20;;;3.40;98.80;;;;;;6126761;23;20029;-88
2021/04/12 05:50:24;;;;;;;3.13;0.50;;;3.50;98.80;;;;;;6127690;23;20022;-87
2021/04/12 05:53:11;;;;;;;2.15;0.88;;;3.50;98.70;;;;;;6128582;23;20033;-88
2021/04/12 05:55:57;;;;;;;3.22;0.80;;;3.50;98.70;;;;;;6128215;23;20022;-88
2021/04/12 05:58:48;;;;;;;4.03;0.80;;;3.50;98.70;;;;;;6128278;23;20037;-88
2021/04/12 06:01:38;;;;;;;2.45;0.60;;;3.50;98.70;;;;;;6136440;23;20029;-88
2021/04/12 06:04:23;;;;;;;3.75;0.60;;;3.50;98.60;;;;;;6127979;23;20025;-89
2021/04/12 06:07:08;;;;;;;2.92;0.80;;;3.50;98.60;;;;;;6129214;23;20029;-88
2021/04/12 06:10:12;;;;;;;3.75;1.33;;;3.60;98.50;;;;;;6126367;23;20108;-88
2021/04/12 06:13:25;;;;;;;1.83;0.50;;;3.70;98.50;;;;;;6128658;23;20059;-87
2021/04/12 06:16:12;;;;;;;1.38;0.50;;;3.70;98.60;;;;;;6129430;23;20077;-84
2021/04/12 06:19:03;;;;;;;3.03;0.50;;;3.80;98.60;;;;;;6128273;23;20036;-84
2021/04/12 06:22:01;;;;;;;3.05;1.10;;;3.80;98.40;;;;;;6128628;23;20045;-84
2021/04/12 06:24:40;;;;;;;55.95;27.70;;;3.90;98.30;;;;;;6128335;23;20100;-84
2021/04/12 06:27:10;;;;;;;59.72;31.98;;;4.00;98.20;;;;;;6128202;23;20023;-85
2021/04/12 06:30:00;;;;;;;26.83;15.05;;;4.10;98.10;;;;;;6129809;23;20029;-84
2021/04/12 06:32:42;;;;;;;4.85;3.53;;;4.20;98.10;;;;;;6155034;23;20035;-84
2021/04/12 06:35:30;;;;;;;4.53;1.30;;;4.20;98.00;;;;;;6128818;23;20461;-84
2021/04/12 06:38:08;;;;;;;2.33;1.40;;;4.30;98.00;;;;;;6127544;23;20031;-84
2021/04/12 06:41:09;;;;;;;3.55;0.80;;;4.40;97.90;;;;;;6124292;23;20024;-84
2021/04/12 06:43:54;;;;;;;6.00;1.13;;;4.60;97.90;;;;;;6149594;23;20480;-84
2021/04/12 06:46:59;;;;;;;2.42;0.70;;;4.70;97.90;;;;;;6149542;23;20314;-84
2021/04/12 06:50:05;;;;;;;2.30;0.80;;;4.80;98.20;;;;;;6123329;23;20021;-83
2021/04/12 06:52:59;;;;;;;3.85;1.10;;;4.90;98.50;;;;;;6002200;23;20016;-83
2021/04/12 06:55:54;;;;;;;4.35;0.80;;;5.00;98.70;;;;;;6003742;23;20024;-85
2021/04/12 06:58:38;;;;;;;3.35;0.95;;;5.00;98.80;;;;;;5980274;23;20027;-83
2021/04/12 07:01:29;;;;;;;2.28;0.70;;;5.10;98.80;;;;;;6003767;23;20024;-84
2021/04/12 07:04:16;;;;;;;4.55;0.90;;;5.20;98.80;;;;;;6004983;23;20015;-83
2021/04/12 07:07:01;;;;;;;4.20;0.80;;;5.30;98.70;;;;;;5980616;23;20451;-82
2021/04/12 07:09:56;;;;;;;13.48;8.82;;;5.50;98.60;;;;;;5980169;23;20528;-84
2021/04/12 07:12:53;;;;;;;4.55;2.53;;;5.60;98.40;;;;;;5980087;23;20379;-85
2021/04/12 07:15:38;;;;;;;5.38;1.85;;;5.70;98.00;;;;;;5980369;23;20027;-84
2021/04/12 07:18:41;;;;;;;3.75;0.90;;;5.90;98.10;;;;;;5980834;23;20031;-85
2021/04/12 07:21:40;;;;;;;2.97;0.60;;;6.10;98.00;;;;;;6004085;23;20526;-85
2021/04/12 07:24:39;;;;;;;3.38;0.60;;;6.20;97.50;;;;;;5980232;23;20035;-85
2021/04/12 07:27:24;;;;;;;2.63;0.77;;;6.30;97.40;;;;;;5980560;23;20368;-85
2021/04/12 07:30:16;;;;;;;1.65;0.52;;;6.60;97.20;;;;;;6080941;23;20021;-84
2021/04/12 07:33:03;;;;;;;4.72;0.65;;;6.70;96.90;;;;;;6125822;23;20023;-84
2021/04/12 07:36:08;;;;;;;2.10;1.02;;;6.80;96.60;;;;;;6124628;23;20017;-84
2021/04/12 07:39:11;;;;;;;3.10;1.20;;;7.00;96.80;;;;;;6125428;23;20025;-84
2021/04/12 07:42:19;;;;;;;5.15;0.70;;;7.20;96.80;;;;;;6125067;23;20029;-84
2021/04/12 07:45:06;;;;;;;3.25;0.65;;;7.40;96.50;;;;;;5979637;23;20038;-85
2021/04/12 07:47:53;;;;;;;1.58;0.45;;;7.60;95.90;;;;;;5980825;23;20027;-83
2021/04/12 07:50:41;;;;;;;3.38;0.68;;;7.70;95.00;;;;;;5979864;23;20028;-83
2021/04/12 07:53:32;;;;;;;5.40;0.80;;;7.80;95.20;;;;;;5980444;23;20367;-84
2021/04/12 07:56:36;;;;;;;4.20;0.98;;;7.90;95.60;;;;;;5978368;23;20023;-84
2021/04/12 07:59:21;;;;;;;4.72;1.30;;;8.10;95.00;;;;;;5892614;24;20033;-83
2021/04/12 08:02:03;;;;;;;3.20;0.52;;;8.20;94.50;;;;;;5870229;24;20071;-83
2021/04/12 08:05:06;;;;;;;3.67;0.52;;;8.30;93.90;;;;;;5893341;24;20040;-83
2021/04/12 08:07:54;;;;;;;3.97;0.90;;;8.40;94.00;;;;;;5893002;24;20066;-84
2021/04/12 08:10:54;;;;;;;3.38;0.70;;;8.60;94.70;;;;;;5893308;24;20032;-83
2021/04/12 08:13:39;;;;;;;1.63;0.60;;;8.80;95.30;;;;;;5894533;24;20433;-84
2021/04/12 08:16:26;;;;;;;1.92;0.47;;;9.00;95.00;;;;;;5972286;23;20020;-84
2021/04/12 08:19:12;;;;;;;2.03;0.77;;;9.20;94.80;;;;;;5982648;23;20486;-83
2021/04/12 08:21:44;;;;;;;8.40;0.68;;;9.30;94.50;;;;;;6004344;23;20042;-84
2021/04/12 08:24:42;;;;;;;2.72;0.50;;;9.50;93.90;;;;;;5981126;23;20027;-84
2021/04/12 08:27:46;;;;;;;2.17;0.73;;;9.60;92.90;;;;;;5980983;23;20031;-84
2021/04/12 08:30:42;;;;;;;2.15;0.60;;;9.70;92.40;;;;;;5981156;23;20028;-84
2021/04/12 08:33:17;;;;;;;4.00;0.52;;;9.80;91.70;;;;;;5949141;24;20028;-84
2021/04/12 08:36:17;;;;;;;1.13;0.50;;;9.90;92.10;;;;;;6003862;23;20094;-84
2021/04/12 08:39:03;;;;;;;2.88;0.50;;;10.00;91.50;;;;;;5981695;23;20035;-84
2021/04/12 08:41:58;;;;;;;2.80;0.50;;;10.20;91.70;;;;;;6005161;23;20094;-84
2021/04/12 08:44:42;;;;;;;4.22;1.25;;;10.20;89.30;;;;;;6004687;23;20472;-83
2021/04/12 08:47:33;;;;;;;3.63;1.23;;;10.10;88.60;;;;;;6004888;23;20016;-84
2021/04/12 08:50:32;;;;;;;1.80;0.70;;;10.00;88.80;;;;;;6005374;23;20388;-84
2021/04/12 08:53:17;;;;;;;;;;;10.00;88.80;;;;;;5982038;23;20027;-83
2021/04/12 08:56:09;;;;;;;4.28;0.57;;;10.00;89.60;;;;;;6005082;23;19942;-84
2021/04/12 08:58:47;;;;;;;4.95;0.68;;;10.10;90.40;;;;;;5894485;24;20394;-84
2021/04/12 09:01:22;;;;;;;2.60;0.45;;;10.30;90.50;;;;;;5894545;24;20026;-85
2021/04/12 09:04:07;;;;;;;2.00;0.73;;;10.50;90.80;;;;;;5872371;24;20022;-84
2021/04/12 09:07:09;;;;;;;1.92;0.40;;;10.50;90.30;;;;;;5871549;24;20056;-83
2021/04/12 09:10:12;;;;;;;0.50;0.40;;;10.60;86.50;;;;;;5893481;24;20036;-84
2021/04/12 09:13:17;;;;;;;2.47;0.52;;;10.60;88.50;;;;;;5954270;24;20034;-84
2021/04/12 09:16:06;;;;;;;2.78;0.70;;;10.70;86.10;;;;;;5976224;23;20103;-84
2021/04/12 09:19:10;;;;;;;3.25;0.70;;;10.70;87.40;;;;;;5953318;24;20036;-83
2021/04/12 09:21:57;;;;;;;2.88;0.52;;;10.70;87.80;;;;;;5953360;24;20020;-83
2021/04/12 09:24:46;;;;;;;1.48;0.50;;;10.90;88.40;;;;;;5975963;23;20621;-83
2021/04/12 09:27:40;;;;;;;3.50;0.70;;;10.90;88.00;;;;;;5953372;23;20024;-84
2021/04/12 09:30:10;;;;;;;3.92;0.75;;;11.00;85.60;;;;;;5975865;23;20031;-84
2021/04/12 09:33:14;;;;;;;2.35;0.70;;;11.10;87.20;;;;;;5954045;24;20505;-83
2021/04/12 09:36:17;;;;;;;6.82;0.80;;;11.10;86.90;;;;;;6040193;23;20040;-83
2021/04/12 09:38:59;;;;;;;3.15;0.70;;;11.30;85.50;;;;;;6126381;23;20049;-83
2021/04/12 09:41:50;;;;;;;2.67;0.70;;;11.30;86.90;;;;;;6151818;23;20072;-83
2021/04/12 09:44:56;;;;;;;2.47;0.60;;;11.40;86.20;;;;;;6151400;23;20097;-84
2021/04/12 09:47:22;;;;;;;2.75;0.52;;;11.40;83.90;;;;;;5981280;23;20376;-83
2021/04/12 09:49:54;;;;;;;1.92;0.55;;;11.40;85.70;;;;;;5982082;23;20438;-83
2021/04/12 09:52:45;;;;;;;3.20;0.60;;;11.40;85.70;;;;;;6004562;23;20469;-83
2021/04/12 09:55:39;;;;;;;6.05;0.85;;;11.50;85.10;;;;;;6004409;23;20027;-83
2021/04/12 09:58:26;;;;;;;3.10;0.60;;;11.60;85.50;;;;;;5981008;23;20031;-84
2021/04/12 10:00:57;;;;;;;1.65;0.70;;;11.70;85.20;;;;;;6004651;23;20101;-83
2021/04/12 10:03:46;;;;;;;1.85;0.60;;;11.50;82.90;;;;;;5980831;23;20028;-83
2021/04/12 10:06:35;;;;;;;3.70;0.57;;;11.40;83.90;;;;;;5980510;23;20030;-83
2021/04/12 10:09:23;;;;;;;2.83;0.60;;;11.40;83.60;;;;;;5981496;23;20028;-83
2021/04/12 10:11:58;;;;;;;2.10;0.60;;;11.50;83.60;;;;;;5980731;23;20352;-83
2021/04/12 10:14:30;;;;;;;2.10;0.50;;;11.70;83.80;;;;;;6004306;23;20597;-83
2021/04/12 10:17:07;;;;;;;3.45;0.68;;;11.70;82.80;;;;;;5981865;23;20486;-83
2021/04/12 10:19:58;;;;;;;2.50;0.60;;;11.50;82.50;;;;;;6004777;23;20032;-83
2021/04/12 10:22:30;;;;;;;2.15;0.70;;;11.60;82.80;;;;;;6004463;23;20028;-83
2021/04/12 10:24:58;;;;;;;3.10;0.60;;;11.70;83.40;;;;;;6097996;23;20041;-83
2021/04/12 10:27:52;;;;;;;4.57;0.70;;;11.70;82.60;;;;;;6125334;23;20022;-83
2021/04/12 10:30:36;;;;;;;3.20;0.70;;;11.70;82.00;;;;;;6120209;23;20017;-83
2021/04/12 10:33:07;;;;;;;1.85;0.60;;;11.80;82.60;;;;;;6125556;23;20018;-83
2021/04/12 10:35:45;;;;;;;1.98;0.40;;;11.90;82.30;;;;;;6125722;23;20033;-83
2021/04/12 10:38:14;;;;;;;3.33;0.60;;;11.90;81.20;;;;;;6124972;23;20461;-84
2021/04/12 10:40:50;;;;;;;2.40;0.50;;;12.00;81.90;;;;;;6126643;23;20048;-84
2021/04/12 10:43:59;;;;;;;2.08;0.60;;;12.10;80.20;;;;;;6130252;23;20026;-84
2021/04/12 10:46:42;;;;;;;1.80;0.60;;;12.10;74.40;;;;;;6097112;23;20017;-84
2021/04/12 10:49:17;;;;;;;3.40;0.60;;;11.90;76.60;;;;;;6150570;23;20469;-84
2021/04/12 10:51:54;;;;;;;0.73;0.50;;;11.70;76.60;;;;;;6125020;23;20643;-83
2021/04/12 10:54:33;;;;;;;1.33;0.50;;;11.60;77.00;;;;;;6124930;23;20577;-84
2021/04/12 10:57:21;;;;;;;3.30;0.50;;;11.70;77.70;;;;;;6127947;23;20449;-84
2021/04/12 11:00:09;;;;;;;2.60;0.70;;;11.70;76.20;;;;;;6153172;23;20029;-84
2021/04/12 11:02:47;;;;;;;1.40;0.52;;;11.70;77.40;;;;;;6111522;23;20472;-84
2021/04/12 11:05:18;;;;;;;1.92;0.50;;;11.80;77.10;;;;;;6154197;23;20024;-84
2021/04/12 11:08:11;;;;;;;1.02;0.50;;;11.80;75.30;;;;;;6154796;23;20021;-85
2021/04/12 11:11:09;;;;;;;2.30;0.60;;;11.80;74.80;;;;;;6108449;23;20442;-85
2021/04/12 11:13:48;;;;;;;5.60;2.70;;;11.80;74.60;;;;;;6122306;23;20022;-85
2021/04/12 11:16:23;;;;;;;2.08;0.70;;;11.90;75.90;;;;;;6095875;23;20026;-86
2021/04/12 11:18:53;;;;;;;1.95;0.60;;;11.90;75.80;;;;;;6097210;23;20026;-86
2021/04/12 11:21:28;;;;;;;1.67;0.60;;;12.00;75.80;;;;;;6096958;23;20026;-86
2021/04/12 11:24:31;;;;;;;2.10;0.60;;;12.10;75.50;;;;;;6097272;23;20076;-84
2021/04/12 11:27:25;;;;;;;2.13;0.60;;;12.00;72.80;;;;;;6096793;23;20022;-84
2021/04/12 11:30:12;;;;;;;4.68;0.82;;;11.90;74.80;;;;;;6096496;23;20042;-84
2021/04/12 11:33:09;;;;;;;2.63;0.50;;;12.00;75.50;;;;;;6096320;23;20022;-84
2021/04/12 11:36:13;;;;;;;2.67;0.88;;;12.00;74.20;;;;;;6122636;23;20022;-83
2021/04/12 11:39:05;;;;;;;1.83;0.60;;;11.90;75.00;;;;;;6096200;23;20105;-84
2021/04/12 11:41:37;;;;;;;2.15;0.50;;;11.90;74.40;;;;;;6096233;23;20025;-84
2021/04/12 11:44:12;;;;;;;1.55;0.68;;;11.90;75.80;;;;;;6096981;23;20484;-85
2021/04/12 11:47:02;;;;;;;2.53;0.70;;;12.00;76.10;;;;;;6097336;23;20022;-84
2021/04/12 11:49:56;;;;;;;2.97;0.95;;;11.90;76.00;;;;;;6098088;23;20025;-84
2021/04/12 11:52:36;;;;;;;2.58;0.80;;;12.10;75.50;;;;;;6097764;23;20025;-84
2021/04/12 11:55:24;;;;;;;3.47;0.73;;;12.00;76.00;;;;;;6096366;23;20428;-84
2021/04/12 11:58:01;;;;;;;4.03;0.80;;;11.90;74.90;;;;;;6097260;23;20056;-84
2021/04/12 12:00:46;;;;;;;2.97;0.63;;;11.90;75.50;;;;;;6122810;23;20045;-84
2021/04/12 12:03:37;;;;;;;1.70;0.52;;;11.90;76.80;;;;;;6097379;23;20028;-84
2021/04/12 12:06:07;;;;;;;1.95;0.60;;;12.00;75.20;;;;;;6097282;23;20315;-85
2021/04/12 12:08:49;;;;;;;2.55;0.80;;;12.10;73.70;;;;;;6097692;23;20022;-84
2021/04/12 12:11:32;;;;;;;2.55;0.70;;;12.00;72.70;;;;;;6097086;23;20825;-84
2021/04/12 12:14:20;;;;;;;1.65;0.70;;;12.00;72.90;;;;;;6098317;23;20101;-83
2021/04/12 12:16:48;;;;;;;1.58;0.60;;;12.00;73.40;;;;;;6123304;23;20246;-84
2021/04/12 12:19:30;;;;;;;1.50;0.60;;;12.10;73.10;;;;;;6100244;23;20042;-84
2021/04/12 12:22:03;;;;;;;2.95;0.90;;;12.20;72.40;;;;;;6101319;23;20269;-84
2021/04/12 12:24:43;;;;;;;1.92;0.60;;;12.20;72.80;;;;;;6101162;23;20018;-84
2021/04/12 12:27:31;;;;;;;2.05;0.73;;;12.20;72.90;;;;;;6101327;23;20018;-84
2021/04/12 12:30:17;;;;;;;2.45;0.90;;;12.30;72.60;;;;;;6101873;23;20026;-84
2021/04/12 12:33:08;;;;;;;1.98;0.70;;;12.30;73.30;;;;;;6126003;23;20472;-84
2021/04/12 12:35:35;;;;;;;1.40;0.68;;;12.50;73.90;;;;;;6100805;23;20378;-84
2021/04/12 12:38:29;;;;;;;3.17;0.68;;;12.50;74.80;;;;;;6101076;23;20033;-84
2021/04/12 12:41:24;;;;;;;3.67;0.88;;;12.60;75.30;;;;;;6099733;23;20018;-85
2021/04/12 12:43:59;;;;;;;2.15;0.70;;;12.60;73.50;;;;;;6099337;23;20047;-85
2021/04/12 12:46:30;;;;;;;4.32;0.70;;;12.50;73.30;;;;;;6099371;23;20470;-84
2021/04/12 12:49:14;;;;;;;1.85;0.68;;;12.30;72.90;;;;;;6101110;23;20022;-85
2021/04/12 12:51:51;;;;;;;1.65;0.70;;;12.20;73.30;;;;;;6099500;23;20030;-84
2021/04/12 12:54:34;;;;;;;2.25;0.77;;;12.10;73.00;;;;;;6125538;23;20021;-84
2021/04/12 12:57:03;;;;;;;3.20;0.68;;;12.10;73.70;;;;;;6125756;23;20018;-85
2021/04/12 12:59:40;;;;;;;2.78;0.70;;;12.10;74.00;;;;;;6099873;23;20312;-84
2021/04/12 13:02:26;;;;;;;1.20;0.70;;;12.20;73.40;;;;;;6100009;23;20105;-85
2021/04/12 13:05:17;;;;;;;1.80;0.65;;;12.30;73.00;;;;;;6099313;23;20049;-84
2021/04/12 13:07:47;;;;;;;1.83;0.70;;;12.40;73.00;;;;;;6097822;23;20053;-84
2021/04/12 13:10:16;;;;;;;2.85;0.73;;;12.40;71.00;;;;;;6099807;23;20026;-85
2021/04/12 13:12:52;;;;;;;1.77;0.50;;;12.40;70.70;;;;;;6084899;23;20391;-85
2021/04/12 13:15:34;;;;;;;6.28;0.63;;;12.50;70.50;;;;;;6100495;23;20022;-84
2021/04/12 13:18:22;;;;;;;6.05;0.80;;;12.60;70.00;;;;;;6100402;23;20014;-84
2021/04/12 13:20:57;;;;;;;3.22;0.80;;;12.80;70.80;;;;;;6096354;23;20076;-84
2021/04/12 13:23:45;;;;;;;3.97;0.98;;;12.90;73.00;;;;;;6096425;23;20018;-84
2021/04/12 13:26:28;;;;;;;2.10;0.80;;;13.00;72.90;;;;;;6096461;23;20097;-85
2021/04/12 13:28:58;;;;;;;2.72;0.90;;;12.90;73.50;;;;;;6097644;23;20028;-84
2021/04/12 13:31:50;;;;;;;6.55;1.13;;;13.00;73.90;;;;;;6097436;23;20037;-85
2021/04/12 13:34:25;;;;;;;6.25;0.98;;;13.10;75.90;;;;;;6096364;23;20021;-84
2021/04/12 13:37:02;;;;;;;2.65;0.80;;;13.10;75.50;;;;;;6096653;23;20484;-84
2021/04/12 13:39:45;;;;;;;3.70;1.00;;;13.20;74.30;;;;;;6096494;23;20053;-84
2021/04/12 13:42:34;;;;;;;2.10;0.75;;;13.20;74.80;;;;;;6097278;23;20085;-84
2021/04/12 13:45:08;;;;;;;2.95;0.80;;;13.20;74.40;;;;;;6097320;23;20022;-83
2021/04/12 13:47:45;;;;;;;2.08;0.90;;;13.30;73.50;;;;;;6084242;23;20101;-84
2021/04/12 13:50:17;;;;;;;3.30;0.88;;;13.20;75.50;;;;;;6096152;23;20378;-84
2021/04/12 13:53:02;;;;;;;3.88;1.17;;;13.10;73.50;;;;;;6122600;23;20028;-84
2021/04/12 13:55:49;;;;;;;5.38;0.90;;;12.90;74.70;;;;;;6096479;23;20028;-84
2021/04/12 13:58:25;;;;;;;1.95;1.10;;;13.00;77.20;;;;;;6096909;23;20028;-84
2021/04/12 14:01:12;;;;;;;3.42;1.10;;;12.90;77.20;;;;;;6099220;23;20108;-86
2021/04/12 14:04:14;;;;;;;1.92;0.88;;;12.90;77.20;;;;;;6096725;23;20022;-85
2021/04/12 14:06:50;;;;;;;2.47;0.80;;;12.90;76.80;;;;;;6095844;23;20084;-86
2021/04/12 14:09:30;;;;;;;2.97;1.10;;;12.90;77.10;;;;;;6096074;23;20025;-86
2021/04/12 14:12:02;;;;;;;6.20;1.42;;;12.90;77.70;;;;;;6126190;23;20041;-86
2021/04/12 14:15:07;;;;;;;2.75;1.20;;;12.90;78.20;;;;;;6125986;23;20013;-85
2021/04/12 14:17:39;;;;;;;3.38;1.08;;;13.00;77.00;;;;;;6102047;23;20037;-85
2021/04/12 14:20:21;;;;;;;2.58;1.20;;;13.10;77.40;;;;;;6125926;23;20025;-86
2021/04/12 14:22:51;;;;;;;2.25;1.02;;;13.10;77.00;;;;;;6126692;23;20021;-85
2021/04/12 14:25:26;;;;;;;2.40;1.25;;;13.10;76.50;;;;;;6124760;23;20038;-85
2021/04/12 14:28:18;;;;;;;3.90;1.00;;;13.00;74.20;;;;;;6126554;23;20017;-85
2021/04/12 14:31:43;;;;;;;2.72;1.20;;;12.90;76.70;;;;;;6125658;23;20341;-84
2021/04/12 14:34:32;;;;;;;2.97;1.10;;;13.00;77.50;;;;;;5979840;23;20028;-86
2021/04/12 14:37:08;;;;;;;2.35;1.17;;;13.10;77.00;;;;;;6004162;23;20024;-85